Terminal Aerodrome Forecast
Issued by NWS Shreveport, LA

Home | Current Version | Previous Version | Text Only | Print | Product List | Glossary On
Versions: 1 2 3 4 5 6 7 8 9 10 11 12 13 14 15 16 17 18 19 20
000
FTUS44 KSHV 242300 RRA
TAFTXK
TAF
KTXK 242343Z 2500/2524 VRB03KT P6SM FEW023
     FM250900 11002KT 2SM BR SCT030 BKN250
     FM251000 05002KT 3SM BR BKN005
     FM251300 VRB04KT P6SM SKC=

USA.gov is the U.S. government's official web portal to all federal, state and local government web resources and services.